Time;durP1;ratioP1;P1;durP2;ratioP2;P2;SDS_P1;SDS_P2;PMS_P1;PMS_P2;Temp;Humidity;BMP_temperature;BMP_pressure;BME280_temperature;BME280_humidity;BME280_pressure;Samples;Min_cycle;Max_cycle;Signal;HPM_P1;HPM_P2
2021/11/22 00:01:29;;;;;;;366.50;351.30;;;4.70;99.90;;;;;;4377253;32;20180;-60
2021/11/22 00:03:56;;;;;;;376.27;360.40;;;4.70;99.90;;;;;;4376392;32;20480;-61
2021/11/22 00:06:23;;;;;;;379.50;363.33;;;4.70;99.90;;;;;;4377292;32;20216;-60
2021/11/22 00:08:50;;;;;;;365.10;349.80;;;4.70;99.90;;;;;;4371078;32;20152;-60
2021/11/22 00:11:18;;;;;;;377.43;361.90;;;4.70;99.90;;;;;;4369112;32;20160;-61
2021/11/22 00:13:45;;;;;;;367.63;352.10;;;4.70;99.90;;;;;;4386067;32;20226;-61
2021/11/22 00:16:11;;;;;;;367.23;351.40;;;4.80;99.90;;;;;;4375984;32;20203;-60
2021/11/22 00:18:39;;;;;;;367.70;352.50;;;4.80;99.90;;;;;;4370388;32;20184;-61
2021/11/22 00:21:05;;;;;;;367.10;351.67;;;4.80;99.90;;;;;;4374075;32;20581;-60
2021/11/22 00:23:32;;;;;;;364.37;348.80;;;4.80;99.90;;;;;;4376695;32;20164;-61
2021/11/22 00:25:59;;;;;;;360.83;345.70;;;4.80;99.90;;;;;;4375073;32;20202;-61
2021/11/22 00:28:27;;;;;;;365.57;350.17;;;4.80;99.90;;;;;;4372603;32;20156;-61
2021/11/22 00:30:54;;;;;;;368.90;353.37;;;4.80;99.90;;;;;;4376626;32;20167;-61
2021/11/22 00:33:21;;;;;;;388.77;372.33;;;4.70;99.90;;;;;;4375123;32;20227;-61
2021/11/22 00:35:49;;;;;;;367.10;351.50;;;4.70;99.90;;;;;;4371522;32;20202;-60
2021/11/22 00:38:16;;;;;;;353.63;339.03;;;4.70;99.90;;;;;;4363945;32;20487;-61
2021/11/22 00:40:43;;;;;;;371.60;356.00;;;4.70;99.90;;;;;;4373002;32;20210;-61
2021/11/22 00:43:11;;;;;;;367.27;351.93;;;4.70;99.90;;;;;;4366782;32;20196;-60
2021/11/22 00:45:40;;;;;;;371.30;355.83;;;4.70;99.90;;;;;;4372788;32;20608;-61
2021/11/22 00:48:07;;;;;;;370.17;353.93;;;4.70;99.90;;;;;;4355981;32;20167;-61
2021/11/22 00:50:35;;;;;;;362.77;347.87;;;4.70;99.90;;;;;;4373720;32;20176;-61
2021/11/22 00:53:02;;;;;;;351.87;337.00;;;4.70;99.90;;;;;;4370315;32;20148;-60
2021/11/22 00:55:29;;;;;;;358.00;343.23;;;4.70;99.90;;;;;;4367147;32;20144;-61
2021/11/22 00:57:56;;;;;;;359.73;344.77;;;4.60;99.90;;;;;;4376998;32;20600;-60
2021/11/22 01:00:23;;;;;;;354.53;339.47;;;4.60;99.90;;;;;;4366940;32;20172;-60
2021/11/22 01:02:51;;;;;;;366.13;350.83;;;4.60;99.90;;;;;;4373033;32;20160;-60
2021/11/22 01:05:18;;;;;;;357.27;342.43;;;4.70;99.90;;;;;;4372046;32;20224;-61
2021/11/22 01:07:45;;;;;;;356.20;341.37;;;4.60;99.90;;;;;;4366795;32;20649;-61
2021/11/22 01:10:13;;;;;;;370.87;355.67;;;4.60;99.90;;;;;;4376891;32;20298;-60
2021/11/22 01:12:40;;;;;;;364.27;348.87;;;4.50;99.90;;;;;;4360001;32;20220;-61
2021/11/22 01:15:10;;;;;;;366.00;350.60;;;4.50;99.90;;;;;;4371424;32;20192;-61
2021/11/22 01:17:37;;;;;;;352.13;337.43;;;4.50;99.90;;;;;;4373846;32;20224;-61
2021/11/22 01:20:08;;;;;;;371.13;355.70;;;4.50;99.90;;;;;;4366746;32;20539;-60
2021/11/22 01:22:37;;;;;;;343.07;328.63;;;4.50;99.90;;;;;;4374507;32;20231;-61
2021/11/22 01:25:04;;;;;;;353.17;338.67;;;4.50;99.90;;;;;;4371928;32;20144;-61
2021/11/22 01:27:31;;;;;;;357.90;342.97;;;4.40;99.90;;;;;;4366843;32;20176;-60
2021/11/22 01:29:58;;;;;;;357.50;342.80;;;4.50;99.90;;;;;;4368062;32;20167;-61
2021/11/22 01:32:24;;;;;;;358.70;343.83;;;4.50;99.90;;;;;;4375457;32;20656;-61
2021/11/22 01:34:51;;;;;;;343.20;328.77;;;4.40;99.90;;;;;;4369597;32;20168;-61
2021/11/22 01:37:19;;;;;;;342.70;328.27;;;4.40;99.90;;;;;;4370185;32;20145;-60
2021/11/22 01:39:46;;;;;;;343.97;329.87;;;4.40;99.90;;;;;;4375237;32;20218;-60
2021/11/22 01:42:13;;;;;;;349.10;334.37;;;4.40;99.90;;;;;;4366520;32;20195;-61
2021/11/22 01:44:40;;;;;;;353.77;339.17;;;4.30;99.90;;;;;;4378601;32;20227;-61
2021/11/22 01:47:07;;;;;;;353.23;338.47;;;4.30;99.90;;;;;;4377770;32;20160;-60
2021/11/22 01:49:35;;;;;;;350.63;336.03;;;4.20;99.90;;;;;;4378598;32;20241;-61
2021/11/22 01:52:02;;;;;;;369.27;353.70;;;4.20;99.90;;;;;;4367218;32;20149;-61
2021/11/22 01:54:30;;;;;;;356.70;341.80;;;4.20;99.90;;;;;;4376254;32;20232;-61
2021/11/22 01:56:58;;;;;;;355.23;340.40;;;4.10;99.90;;;;;;4375346;32;20184;-61
2021/11/22 01:59:25;;;;;;;353.70;339.33;;;4.20;99.90;;;;;;4378788;32;20619;-61
2021/11/22 02:01:53;;;;;;;356.83;342.17;;;4.10;99.90;;;;;;4366310;32;20180;-61
2021/11/22 02:04:20;;;;;;;353.57;338.60;;;4.10;99.90;;;;;;4377779;32;20209;-60
2021/11/22 02:06:49;;;;;;;352.43;337.63;;;4.00;99.90;;;;;;4378423;32;20208;-61
2021/11/22 02:09:15;;;;;;;351.93;336.80;;;4.00;99.90;;;;;;4378589;32;20198;-61
2021/11/22 02:11:44;;;;;;;363.70;348.73;;;4.00;99.90;;;;;;4365788;32;20148;-61
2021/11/22 02:14:11;;;;;;;357.87;342.83;;;4.00;99.90;;;;;;4375181;32;20591;-60
2021/11/22 02:16:37;;;;;;;375.97;360.13;;;4.00;99.90;;;;;;4366584;32;20149;-62
2021/11/22 02:19:06;;;;;;;359.93;344.57;;;3.90;99.90;;;;;;4377359;32;20148;-62
2021/11/22 02:21:35;;;;;;;353.77;338.97;;;3.90;99.90;;;;;;4375661;32;20141;-60
2021/11/22 02:24:02;;;;;;;350.70;336.13;;;3.90;99.90;;;;;;4376742;32;20224;-60
2021/11/22 02:26:30;;;;;;;362.57;347.73;;;3.90;99.90;;;;;;4372709;32;20164;-60
2021/11/22 02:28:57;;;;;;;363.13;348.33;;;3.80;99.90;;;;;;4370848;32;20152;-60
2021/11/22 02:31:23;;;;;;;347.93;333.63;;;3.80;99.90;;;;;;4376722;32;20182;-60
2021/11/22 02:33:53;;;;;;;370.83;355.47;;;3.80;99.90;;;;;;4376788;32;20200;-60
2021/11/22 02:36:20;;;;;;;355.03;340.17;;;3.80;99.90;;;;;;4387464;32;20203;-61
2021/11/22 02:38:49;;;;;;;369.40;354.13;;;3.70;99.90;;;;;;4375728;32;20171;-60
2021/11/22 02:41:17;;;;;;;368.70;352.97;;;3.80;99.90;;;;;;4376537;32;20182;-61
2021/11/22 02:43:46;;;;;;;358.80;343.47;;;3.80;99.90;;;;;;4364855;32;20188;-60
2021/11/22 02:46:14;;;;;;;366.43;350.80;;;3.80;99.90;;;;;;4376296;32;20232;-61
2021/11/22 02:48:41;;;;;;;378.10;362.13;;;3.70;99.90;;;;;;4376468;32;20236;-61
2021/11/22 02:51:09;;;;;;;363.40;348.20;;;3.70;99.90;;;;;;4376531;32;20258;-61
2021/11/22 02:53:37;;;;;;;361.33;346.43;;;3.70;99.90;;;;;;4376950;32;20149;-61
2021/11/22 02:56:07;;;;;;;368.27;351.97;;;3.60;99.90;;;;;;4375096;32;20163;-61
2021/11/22 02:58:35;;;;;;;371.03;355.40;;;3.70;99.90;;;;;;4377510;32;20597;-61
2021/11/22 03:01:02;;;;;;;380.93;364.77;;;3.70;99.90;;;;;;4377937;32;20167;-61
2021/11/22 03:03:30;;;;;;;381.00;365.00;;;3.70;99.90;;;;;;4378671;32;20238;-61
2021/11/22 03:06:09;;;;;;;373.50;357.37;;;3.70;99.90;;;;;;4379709;32;20574;-60
2021/11/22 03:08:36;;;;;;;361.43;346.17;;;3.70;99.90;;;;;;4372381;32;20643;-60
2021/11/22 03:11:05;;;;;;;370.00;353.97;;;3.70;99.90;;;;;;4369663;32;20230;-61
2021/11/22 03:13:32;;;;;;;363.80;347.87;;;3.70;99.90;;;;;;4376215;32;20220;-61
2021/11/22 03:15:59;;;;;;;392.47;376.27;;;3.70;99.90;;;;;;4377678;32;20482;-62
2021/11/22 03:18:26;;;;;;;376.77;361.10;;;3.70;99.90;;;;;;4375775;32;20144;-61
2021/11/22 03:20:53;;;;;;;362.97;348.10;;;3.70;99.90;;;;;;4377692;32;20166;-61
2021/11/22 03:23:20;;;;;;;360.30;344.93;;;3.80;99.90;;;;;;4366904;32;20149;-61
2021/11/22 03:25:47;;;;;;;363.30;348.13;;;3.70;99.90;;;;;;4374250;32;20597;-60
2021/11/22 03:28:16;;;;;;;361.07;345.80;;;3.70;99.90;;;;;;4374894;32;20227;-62
2021/11/22 03:30:43;;;;;;;377.77;361.67;;;3.80;99.90;;;;;;4375728;32;20148;-61
2021/11/22 03:33:10;;;;;;;365.60;350.07;;;3.70;99.90;;;;;;4377836;32;20569;-60
2021/11/22 03:35:37;;;;;;;352.40;337.53;;;3.80;99.90;;;;;;4374961;32;20166;-61
2021/11/22 03:38:05;;;;;;;363.93;348.63;;;3.70;99.90;;;;;;4373567;32;20172;-61
2021/11/22 03:40:32;;;;;;;359.30;344.27;;;3.70;99.90;;;;;;4366802;32;20144;-61
2021/11/22 03:43:12;;;;;;;354.13;339.70;;;3.70;99.90;;;;;;4376382;32;20455;-61
2021/11/22 03:45:43;;;;;;;353.70;339.03;;;3.60;99.90;;;;;;4375029;32;20145;-61
2021/11/22 03:48:10;;;;;;;345.03;330.40;;;3.70;99.90;;;;;;4376903;32;20183;-61
2021/11/22 03:50:37;;;;;;;344.70;330.30;;;3.70;99.90;;;;;;4377099;32;20547;-61
2021/11/22 03:53:04;;;;;;;343.57;329.27;;;3.70;99.90;;;;;;4380687;32;20163;-61
2021/11/22 03:55:31;;;;;;;336.90;322.87;;;3.70;99.90;;;;;;4372764;32;20652;-60
2021/11/22 03:57:58;;;;;;;350.43;335.63;;;3.70;99.90;;;;;;4373602;32;20168;-61
2021/11/22 04:00:25;;;;;;;339.20;325.00;;;3.70;99.90;;;;;;4375358;32;20227;-61
2021/11/22 04:02:53;;;;;;;349.50;335.40;;;3.70;99.90;;;;;;4375775;32;20203;-61
2021/11/22 04:05:20;;;;;;;358.60;343.70;;;3.70;99.90;;;;;;4376586;32;20219;-61
2021/11/22 04:07:47;;;;;;;333.83;319.63;;;3.60;99.90;;;;;;4375580;32;20239;-61
2021/11/22 04:10:14;;;;;;;347.53;332.60;;;3.60;99.90;;;;;;4363141;32;20219;-61
2021/11/22 04:12:41;;;;;;;364.00;348.87;;;3.60;99.90;;;;;;4375224;32;20176;-61
2021/11/22 04:15:08;;;;;;;340.83;326.27;;;3.50;99.90;;;;;;4375324;32;20224;-61
2021/11/22 04:17:35;;;;;;;333.30;319.43;;;3.50;99.90;;;;;;4375521;32;20149;-61
2021/11/22 04:20:07;;;;;;;330.00;315.87;;;3.50;99.90;;;;;;4374188;32;20190;-60
2021/11/22 04:22:33;;;;;;;334.17;320.03;;;3.40;99.90;;;;;;4376974;32;20178;-60
2021/11/22 04:25:00;;;;;;;347.20;333.03;;;3.50;99.90;;;;;;4376893;32;20172;-61
2021/11/22 04:27:27;;;;;;;341.93;328.03;;;3.30;99.90;;;;;;4375356;32;20220;-61
2021/11/22 04:29:54;;;;;;;339.43;325.57;;;3.30;99.90;;;;;;4372244;32;20170;-60
2021/11/22 04:32:21;;;;;;;334.93;320.67;;;3.30;99.90;;;;;;4385985;32;20237;-60
2021/11/22 04:34:48;;;;;;;341.57;327.37;;;3.30;99.90;;;;;;4382850;32;20161;-60
2021/11/22 04:37:16;;;;;;;330.13;316.77;;;3.30;99.90;;;;;;4374310;32;20568;-60
2021/11/22 04:39:42;;;;;;;335.63;321.33;;;3.30;99.90;;;;;;4376053;32;20177;-61
2021/11/22 04:42:09;;;;;;;343.57;329.13;;;3.30;99.90;;;;;;4374529;32;20199;-61
2021/11/22 04:44:36;;;;;;;352.73;337.93;;;3.20;99.90;;;;;;4302791;32;2076541;-61
2021/11/22 04:47:09;;;;;;;338.87;324.67;;;3.10;99.90;;;;;;4370604;32;20197;-61
2021/11/22 04:49:36;;;;;;;328.20;314.83;;;3.20;99.90;;;;;;4364403;32;20231;-61
2021/11/22 04:52:04;;;;;;;345.17;330.73;;;3.20;99.90;;;;;;4374189;32;20199;-60
2021/11/22 04:54:32;;;;;;;346.40;332.10;;;3.10;99.90;;;;;;4366101;32;20156;-61
2021/11/22 04:56:59;;;;;;;336.37;322.70;;;3.10;99.90;;;;;;4367572;32;20522;-61
2021/11/22 04:59:26;;;;;;;334.20;320.57;;;3.10;99.90;;;;;;4368998;32;20181;-61
2021/11/22 05:01:53;;;;;;;334.97;321.03;;;3.10;99.90;;;;;;4374628;32;20218;-60
2021/11/22 05:04:20;;;;;;;333.80;319.83;;;3.00;99.90;;;;;;4364590;32;20172;-60
2021/11/22 05:06:47;;;;;;;341.30;327.27;;;3.00;99.90;;;;;;4369089;32;20161;-60
2021/11/22 05:09:15;;;;;;;322.63;309.57;;;2.90;99.90;;;;;;4368566;32;20587;-61
2021/11/22 05:11:43;;;;;;;333.60;319.77;;;3.00;99.90;;;;;;4370961;32;20162;-60
2021/11/22 05:14:11;;;;;;;336.43;322.07;;;3.00;99.90;;;;;;4363204;32;20254;-61
2021/11/22 05:16:38;;;;;;;333.63;319.93;;;2.90;99.90;;;;;;4375326;32;20161;-61
2021/11/22 05:19:05;;;;;;;335.30;321.40;;;2.90;99.90;;;;;;4367513;32;20160;-61
2021/11/22 05:21:32;;;;;;;330.17;315.90;;;2.90;99.90;;;;;;4371064;32;20182;-61
2021/11/22 05:23:59;;;;;;;334.20;320.23;;;2.90;99.90;;;;;;4362499;32;20599;-61
2021/11/22 05:26:26;;;;;;;350.87;336.23;;;2.90;99.90;;;;;;4371358;32;20165;-61
2021/11/22 05:28:54;;;;;;;323.10;309.83;;;2.80;99.90;;;;;;4360183;32;20151;-61
2021/11/22 05:31:23;;;;;;;355.03;340.27;;;2.80;99.90;;;;;;4371888;32;20223;-61
2021/11/22 05:33:50;;;;;;;341.37;327.00;;;2.80;99.90;;;;;;4366034;32;20256;-61
2021/11/22 05:36:17;;;;;;;350.13;335.57;;;2.80;99.90;;;;;;4352945;32;20195;-60
2021/11/22 05:38:44;;;;;;;356.10;341.10;;;2.80;99.90;;;;;;4372226;32;20278;-61
2021/11/22 05:41:11;;;;;;;357.03;342.20;;;2.80;99.90;;;;;;4371640;32;20159;-60
2021/11/22 05:43:38;;;;;;;363.83;348.60;;;2.80;99.90;;;;;;4365377;32;20560;-59
2021/11/22 05:46:08;;;;;;;337.17;323.40;;;2.80;99.90;;;;;;4366424;32;20348;-62
2021/11/22 05:48:35;;;;;;;355.33;340.73;;;2.80;99.90;;;;;;4372864;32;20183;-61
2021/11/22 05:51:03;;;;;;;354.67;340.20;;;2.70;99.90;;;;;;4369752;32;20175;-60
2021/11/22 05:53:34;;;;;;;338.50;324.53;;;2.70;99.90;;;;;;4368657;32;20188;-61
2021/11/22 05:56:01;;;;;;;363.60;348.53;;;2.70;99.90;;;;;;4375903;32;20189;-62
2021/11/22 05:58:30;;;;;;;341.23;327.23;;;2.70;99.90;;;;;;4371913;32;20165;-60
2021/11/22 06:00:57;;;;;;;353.77;339.23;;;2.70;99.90;;;;;;4369726;32;20214;-59
2021/11/22 06:03:27;;;;;;;351.03;336.47;;;2.60;99.90;;;;;;4371657;32;20216;-59
2021/11/22 06:05:54;;;;;;;353.60;338.93;;;2.60;99.90;;;;;;4363746;32;20187;-60
2021/11/22 06:08:21;;;;;;;338.97;324.87;;;2.60;99.90;;;;;;4370403;32;20596;-59
2021/11/22 06:10:49;;;;;;;345.93;332.00;;;2.60;99.90;;;;;;4372321;32;20626;-59
2021/11/22 06:13:16;;;;;;;359.50;344.60;;;2.50;99.90;;;;;;4370861;32;20182;-61
2021/11/22 06:15:44;;;;;;;356.53;341.90;;;2.50;99.90;;;;;;4365628;32;20598;-59
2021/11/22 06:18:12;;;;;;;347.67;333.53;;;2.50;99.90;;;;;;4361242;32;20163;-59
2021/11/22 06:20:40;;;;;;;368.07;352.80;;;2.50;99.90;;;;;;4367924;32;20630;-59
2021/11/22 06:23:08;;;;;;;343.97;329.90;;;2.50;99.90;;;;;;4364919;32;20163;-59
2021/11/22 06:25:35;;;;;;;352.83;338.10;;;2.50;99.90;;;;;;4373902;32;20208;-59
2021/11/22 06:28:03;;;;;;;348.17;333.40;;;2.40;99.90;;;;;;4375495;32;20172;-60
2021/11/22 06:30:30;;;;;;;338.27;324.50;;;2.40;99.90;;;;;;4361553;32;20194;-60
2021/11/22 06:32:57;;;;;;;354.27;339.83;;;2.40;99.90;;;;;;4365306;32;20218;-60
2021/11/22 06:35:25;;;;;;;357.07;342.23;;;2.40;99.90;;;;;;4359112;32;20656;-60
2021/11/22 06:37:53;;;;;;;353.20;338.47;;;2.40;99.90;;;;;;4357572;32;20187;-60
2021/11/22 06:40:20;;;;;;;360.30;345.47;;;2.40;99.90;;;;;;4360370;32;20165;-60
2021/11/22 06:42:47;;;;;;;354.70;339.90;;;2.40;99.90;;;;;;4367319;32;20205;-60
2021/11/22 06:45:15;;;;;;;363.83;348.47;;;2.30;99.90;;;;;;4375207;32;20226;-59
2021/11/22 06:47:42;;;;;;;366.40;351.13;;;2.30;99.90;;;;;;4376065;32;20476;-60
2021/11/22 06:52:57;;;;;;;349.97;335.50;;;2.30;99.90;;;;;;4375373;32;20280;-59
2021/11/22 06:55:24;;;;;;;361.83;346.57;;;2.30;99.90;;;;;;4376243;32;20219;-61
2021/11/22 06:57:51;;;;;;;361.57;346.40;;;2.30;99.90;;;;;;4374548;32;20165;-60
2021/11/22 07:00:20;;;;;;;356.70;341.63;;;2.30;99.90;;;;;;4374110;32;20212;-60
2021/11/22 07:02:50;;;;;;;368.60;352.33;;;2.20;99.90;;;;;;4377010;32;20175;-60
2021/11/22 07:05:18;;;;;;;348.60;334.37;;;2.30;99.90;;;;;;4376016;32;20177;-60
2021/11/22 07:07:45;;;;;;;365.10;350.10;;;2.20;99.90;;;;;;4375178;32;20172;-60
2021/11/22 07:10:13;;;;;;;352.53;337.40;;;2.20;99.90;;;;;;4373401;32;20239;-61
2021/11/22 07:12:40;;;;;;;370.00;354.53;;;2.20;99.90;;;;;;4372233;32;20243;-60
2021/11/22 07:15:08;;;;;;;357.40;342.60;;;2.20;99.90;;;;;;4375908;32;20271;-59
2021/11/22 07:17:35;;;;;;;354.97;339.93;;;2.20;99.90;;;;;;4373494;32;20262;-60
2021/11/22 07:20:05;;;;;;;356.77;342.10;;;2.30;99.90;;;;;;4376558;32;20216;-60
2021/11/22 07:22:32;;;;;;;370.57;354.77;;;2.30;99.90;;;;;;4374029;32;20169;-59
2021/11/22 07:24:58;;;;;;;367.67;352.13;;;2.30;99.90;;;;;;4375814;32;20236;-60
2021/11/22 07:27:26;;;;;;;366.30;351.20;;;2.30;99.90;;;;;;4369853;32;20204;-60
2021/11/22 07:29:55;;;;;;;363.67;348.30;;;2.30;99.90;;;;;;4367887;32;20253;-60
2021/11/22 07:32:22;;;;;;;370.67;354.90;;;2.30;99.90;;;;;;4370780;32;20212;-60
2021/11/22 07:34:49;;;;;;;374.17;358.27;;;2.40;99.90;;;;;;4375382;32;20197;-60
2021/11/22 07:37:15;;;;;;;373.30;357.60;;;2.40;99.90;;;;;;4379016;32;20545;-60
2021/11/22 07:39:43;;;;;;;369.17;353.57;;;2.40;99.90;;;;;;4376527;32;20184;-60
2021/11/22 07:42:12;;;;;;;370.83;355.50;;;2.40;99.90;;;;;;4373738;32;20288;-60
2021/11/22 07:44:41;;;;;;;370.23;354.87;;;2.40;99.90;;;;;;4373106;32;20187;-60
2021/11/22 07:47:08;;;;;;;360.23;345.47;;;2.40;99.90;;;;;;4372532;32;20223;-60
2021/11/22 07:49:35;;;;;;;367.97;352.77;;;2.40;99.90;;;;;;4373916;32;20164;-60
2021/11/22 07:52:02;;;;;;;367.83;352.57;;;2.40;99.90;;;;;;4374853;32;20178;-60
2021/11/22 07:54:29;;;;;;;362.33;347.33;;;2.40;99.90;;;;;;4368213;32;20172;-59
2021/11/22 07:56:56;;;;;;;370.10;354.73;;;2.40;99.90;;;;;;4370995;32;20450;-59
2021/11/22 07:59:23;;;;;;;366.13;351.07;;;2.50;99.90;;;;;;4374861;32;20181;-62
2021/11/22 08:01:51;;;;;;;375.40;359.53;;;2.50;99.90;;;;;;4373177;32;20161;-60
2021/11/22 08:04:21;;;;;;;370.53;355.07;;;2.50;99.90;;;;;;4372227;32;20589;-60
2021/11/22 08:06:53;;;;;;;364.53;349.43;;;2.50;99.90;;;;;;4371669;32;20202;-61
2021/11/22 08:09:27;;;;;;;373.13;357.30;;;2.60;99.90;;;;;;4370263;32;20240;-60
2021/11/22 08:12:14;;;;;;;376.13;360.07;;;2.60;99.90;;;;;;4371069;32;20490;-60
2021/11/22 08:14:41;;;;;;;360.13;345.20;;;2.70;99.90;;;;;;4372519;32;20227;-60
2021/11/22 08:17:11;;;;;;;376.27;359.90;;;2.70;99.90;;;;;;4372569;32;20231;-61
2021/11/22 08:19:39;;;;;;;374.47;358.83;;;2.70;99.90;;;;;;4369647;32;20239;-61
2021/11/22 08:22:06;;;;;;;394.07;376.60;;;2.80;99.90;;;;;;4374222;32;20636;-60
2021/11/22 08:24:33;;;;;;;387.60;371.27;;;2.90;99.90;;;;;;4373569;32;20609;-61
2021/11/22 08:27:00;;;;;;;379.30;362.90;;;3.00;99.90;;;;;;4374184;32;20156;-61
2021/11/22 08:29:27;;;;;;;393.33;376.87;;;3.00;99.90;;;;;;4373613;32;20176;-60
2021/11/22 08:31:54;;;;;;;376.97;361.10;;;3.10;99.90;;;;;;4372566;32;20160;-60
2021/11/22 08:34:22;;;;;;;372.30;356.57;;;3.10;99.90;;;;;;4373411;32;20218;-61
2021/11/22 08:36:49;;;;;;;368.33;352.63;;;3.20;99.90;;;;;;4374125;32;20237;-61
2021/11/22 08:39:16;;;;;;;375.70;360.03;;;3.30;99.90;;;;;;4371087;32;20224;-61
2021/11/22 08:41:43;;;;;;;382.07;365.80;;;3.40;99.90;;;;;;4373789;32;20195;-61
2021/11/22 08:44:10;;;;;;;363.53;348.43;;;3.50;99.90;;;;;;4369765;32;20184;-62
2021/11/22 08:46:38;;;;;;;363.97;348.83;;;3.60;99.90;;;;;;4372016;32;20194;-61
2021/11/22 08:49:07;;;;;;;386.73;370.47;;;3.60;99.90;;;;;;4369361;32;20210;-61
2021/11/22 08:51:35;;;;;;;360.87;345.57;;;3.70;99.90;;;;;;4370227;32;20234;-61
2021/11/22 08:54:02;;;;;;;367.60;352.17;;;3.80;99.90;;;;;;4374485;32;20632;-62
2021/11/22 08:56:29;;;;;;;364.20;348.90;;;3.80;99.90;;;;;;4372979;32;20499;-64
2021/11/22 08:58:56;;;;;;;366.13;350.80;;;3.90;99.90;;;;;;4375118;32;20157;-61
2021/11/22 09:01:24;;;;;;;348.13;333.77;;;4.00;99.90;;;;;;4375346;32;20236;-61
2021/11/22 09:03:51;;;;;;;356.03;341.03;;;4.10;99.90;;;;;;4370816;32;20169;-61
2021/11/22 09:06:19;;;;;;;351.37;336.37;;;4.20;99.90;;;;;;4375727;32;20156;-60
2021/11/22 09:08:48;;;;;;;347.37;332.73;;;4.30;99.90;;;;;;4378303;32;20170;-60
2021/11/22 09:11:16;;;;;;;348.87;334.03;;;4.40;99.90;;;;;;4374808;32;20165;-60
2021/11/22 09:13:44;;;;;;;341.13;326.73;;;4.40;99.90;;;;;;4378399;32;20488;-60
2021/11/22 09:16:11;;;;;;;346.90;332.60;;;4.60;99.90;;;;;;4375955;32;20152;-61
2021/11/22 09:18:39;;;;;;;339.10;325.03;;;4.60;99.90;;;;;;4370499;32;20211;-61
2021/11/22 09:21:06;;;;;;;333.70;319.80;;;4.70;99.90;;;;;;4378341;32;20663;-60
2021/11/22 09:23:33;;;;;;;333.73;319.63;;;4.70;99.90;;;;;;4377260;32;20603;-60
2021/11/22 09:26:01;;;;;;;323.10;309.73;;;4.80;99.90;;;;;;4376280;32;20604;-60
2021/11/22 09:28:28;;;;;;;326.63;313.07;;;4.90;99.90;;;;;;4379077;32;20184;-60
2021/11/22 09:30:55;;;;;;;353.67;338.60;;;5.00;99.90;;;;;;4377519;32;20219;-60
2021/11/22 09:33:22;;;;;;;327.17;313.53;;;5.00;99.90;;;;;;4379240;32;20187;-61
2021/11/22 09:35:49;;;;;;;324.93;311.70;;;5.00;99.90;;;;;;4377843;32;20164;-61
2021/11/22 09:38:16;;;;;;;336.70;323.17;;;5.00;99.90;;;;;;4377378;32;20252;-61
2021/11/22 09:40:43;;;;;;;331.80;318.13;;;5.30;99.90;;;;;;4377705;32;20263;-61
2021/11/22 09:43:11;;;;;;;334.13;320.37;;;5.40;99.90;;;;;;4376724;32;20211;-61
2021/11/22 09:45:39;;;;;;;304.63;292.30;;;5.50;99.90;;;;;;4377665;32;20484;-60
2021/11/22 09:48:06;;;;;;;300.97;288.63;;;5.50;99.90;;;;;;4377575;32;20230;-60
2021/11/22 09:50:33;;;;;;;308.37;296.00;;;5.60;99.90;;;;;;4375724;32;20235;-60
2021/11/22 09:53:02;;;;;;;308.70;296.07;;;5.60;99.90;;;;;;4376571;32;20176;-60
2021/11/22 09:55:30;;;;;;;323.60;310.60;;;5.70;99.90;;;;;;4376834;32;20190;-61
2021/11/22 09:57:57;;;;;;;304.40;291.20;;;5.70;99.90;;;;;;4377081;32;20178;-61
2021/11/22 10:00:32;;;;;;;310.33;297.47;;;5.70;99.90;;;;;;4377767;32;20165;-60
2021/11/22 10:02:59;;;;;;;306.60;294.13;;;5.70;99.90;;;;;;4376577;32;20179;-60
2021/11/22 10:05:30;;;;;;;312.97;300.37;;;5.80;99.90;;;;;;4376870;32;20171;-61
2021/11/22 10:08:02;;;;;;;295.40;283.37;;;5.90;99.90;;;;;;4376514;32;20216;-61
2021/11/22 10:10:39;;;;;;;296.60;284.50;;;6.00;99.90;;;;;;4376890;32;20187;-60
2021/11/22 10:13:32;;;;;;;293.33;281.43;;;6.00;99.90;;;;;;4376347;32;20227;-60
2021/11/22 10:16:20;;;;;;;301.40;289.00;;;6.10;99.90;;;;;;4365843;32;20193;-61
2021/11/22 10:18:50;;;;;;;286.10;274.27;;;6.00;99.90;;;;;;4376972;32;20156;-61
2021/11/22 10:21:18;;;;;;;301.37;289.03;;;6.10;99.90;;;;;;4376398;32;20179;-61
2021/11/22 10:23:47;;;;;;;318.13;305.03;;;6.00;99.90;;;;;;4376439;32;20168;-60
2021/11/22 10:26:15;;;;;;;321.90;308.63;;;5.90;99.90;;;;;;4375545;32;20168;-61
2021/11/22 10:28:45;;;;;;;326.33;312.53;;;6.10;99.90;;;;;;4371087;32;20156;-60
2021/11/22 10:31:15;;;;;;;302.93;290.80;;;6.20;99.90;;;;;;4376355;32;20161;-61
2021/11/22 10:33:43;;;;;;;315.50;302.47;;;6.40;99.90;;;;;;4375921;32;20660;-61
2021/11/22 10:36:13;;;;;;;307.93;295.20;;;6.30;99.90;;;;;;4376260;32;20176;-62
2021/11/22 10:38:42;;;;;;;297.23;284.93;;;6.30;99.90;;;;;;4377742;32;20176;-60
2021/11/22 10:41:11;;;;;;;311.33;298.67;;;6.40;99.90;;;;;;4376038;32;20176;-61
2021/11/22 10:43:42;;;;;;;312.40;299.03;;;6.30;99.90;;;;;;4374565;32;20196;-60
2021/11/22 10:46:12;;;;;;;321.97;308.57;;;6.40;99.90;;;;;;4376583;32;20168;-60
2021/11/22 10:48:46;;;;;;;330.47;316.93;;;6.40;99.90;;;;;;4375432;32;20204;-60
2021/11/22 10:51:16;;;;;;;304.97;292.57;;;6.40;99.90;;;;;;4375100;32;20233;-60
2021/11/22 10:53:45;;;;;;;319.33;306.33;;;6.50;99.90;;;;;;4376280;32;20164;-59
2021/11/22 10:56:14;;;;;;;322.43;309.17;;;6.50;99.90;;;;;;4376235;32;20527;-59
2021/11/22 10:58:52;;;;;;;320.77;307.37;;;6.60;99.90;;;;;;4376145;32;20176;-59
2021/11/22 11:01:35;;;;;;;295.77;283.60;;;6.80;99.90;;;;;;4375760;32;20247;-60
2021/11/22 11:04:09;;;;;;;281.33;269.87;;;6.80;99.90;;;;;;4366304;32;20157;-58
2021/11/22 11:06:42;;;;;;;281.63;270.33;;;6.90;99.90;;;;;;4375314;32;20207;-60
2021/11/22 11:09:10;;;;;;;269.27;257.90;;;7.00;99.90;;;;;;4361248;33;20179;-60
2021/11/22 11:11:37;;;;;;;255.63;245.03;;;7.10;99.90;;;;;;4375695;32;20220;-59
2021/11/22 11:14:07;;;;;;;239.00;229.33;;;7.00;99.90;;;;;;4375834;32;20160;-59
2021/11/22 11:16:34;;;;;;;273.27;262.43;;;7.10;99.90;;;;;;4375771;32;20186;-60
2021/11/22 11:19:05;;;;;;;256.30;245.73;;;7.10;99.90;;;;;;4377218;32;20185;-65
2021/11/22 11:21:34;;;;;;;249.77;239.77;;;7.10;99.90;;;;;;4374066;32;20222;-60
2021/11/22 11:24:08;;;;;;;217.67;208.93;;;7.10;99.90;;;;;;4376238;32;20157;-59
2021/11/22 11:26:37;;;;;;;195.33;187.13;;;7.20;99.90;;;;;;4369715;32;20203;-60
2021/11/22 11:29:05;;;;;;;189.63;182.00;;;7.20;99.90;;;;;;4372354;32;20172;-59
2021/11/22 11:31:34;;;;;;;214.10;205.53;;;7.10;99.90;;;;;;4376954;32;20180;-60
2021/11/22 11:34:07;;;;;;;190.50;183.03;;;7.10;99.90;;;;;;4372721;32;20589;-61
2021/11/22 11:36:48;;;;;;;189.90;182.00;;;7.20;99.90;;;;;;4376373;32;20226;-61
2021/11/22 11:39:31;;;;;;;184.30;176.57;;;7.30;99.90;;;;;;4375205;32;20215;-59
2021/11/22 11:42:08;;;;;;;187.07;179.70;;;7.30;99.90;;;;;;4374576;32;20219;-60
2021/11/22 11:44:48;;;;;;;164.37;157.73;;;7.40;99.90;;;;;;4375471;32;20185;-60
2021/11/22 11:47:31;;;;;;;134.97;128.90;;;7.50;99.90;;;;;;4375897;32;20473;-60
2021/11/22 11:50:18;;;;;;;183.63;175.97;;;7.40;99.90;;;;;;4376790;32;20655;-59
2021/11/22 11:52:51;;;;;;;179.60;172.27;;;7.40;99.90;;;;;;4375474;32;20212;-60
2021/11/22 11:55:18;;;;;;;176.17;168.67;;;7.40;99.90;;;;;;4372039;32;20623;-60
2021/11/22 11:57:45;;;;;;;200.93;192.90;;;7.40;99.90;;;;;;4374233;32;20161;-60
2021/11/22 12:00:22;;;;;;;172.30;165.47;;;7.40;99.90;;;;;;4376485;32;20198;-59
2021/11/22 12:03:00;;;;;;;155.97;149.57;;;7.50;99.90;;;;;;4372263;32;20175;-59
2021/11/22 12:05:45;;;;;;;195.13;187.13;;;7.40;99.90;;;;;;4374982;32;20203;-60
2021/11/22 12:08:24;;;;;;;208.70;200.53;;;7.30;99.90;;;;;;4374801;32;20160;-60
2021/11/22 12:10:51;;;;;;;178.40;171.13;;;7.40;99.90;;;;;;4375971;32;20168;-60
2021/11/22 12:13:19;;;;;;;191.63;184.00;;;7.50;99.90;;;;;;4372443;32;20242;-61
2021/11/22 12:15:48;;;;;;;186.03;178.60;;;7.60;99.90;;;;;;4374952;32;20275;-60
2021/11/22 12:18:25;;;;;;;196.77;188.97;;;7.60;99.90;;;;;;4375662;32;20156;-60
2021/11/22 12:21:05;;;;;;;149.47;142.97;;;7.60;99.90;;;;;;4375800;32;20168;-60
2021/11/22 12:23:42;;;;;;;161.70;155.10;;;7.70;99.90;;;;;;4375873;32;20214;-59
2021/11/22 12:26:12;;;;;;;160.07;153.60;;;7.70;99.90;;;;;;4377082;32;20162;-60
2021/11/22 12:28:50;;;;;;;140.23;134.43;;;7.70;99.90;;;;;;4374885;32;20187;-59